Menalon — SXCH — position and weather

sailwx.info

Track history (hours):
 
Tides and Currents Weather Stations Pressure Air Temp Water Temp Dewpoint Dewpoint Depression Visibility Wind Speed Wind Dir Waves Ship Positions

Menalon

Last reported at 2015-Mar-24 19:25 UTC. Time now 2015-Mar-28 05:21 UTC.
Position N 37°38' E 023°51'.

Length 83 m; draft 6.5 m.

Type: Ship (hazmat cat C). MMSI: 239741000.

Date/timePositionNaut miles runAvg speedWind from/ knotsBaromVisibWave heightAir tempDewpointWater temp
2015-Mar-24 19:25N 37°38' E 023°51'7 8.3
2015-Mar-24 18:33N 37°41' E 023°42'9 8.6
2015-Mar-24 17:33N 37°48' E 023°37'9 8.9
2015-Mar-24 16:33N 37°57' E 023°35'0 0.3
2015-Mar-24 15:30N 37°57' E 023°35'0 0.0
2015-Mar-24 14:31N 37°57' E 023°35'0 0.0
2015-Mar-24 13:31N 37°57' E 023°35'6 2.9
2015-Mar-24 11:33N 38°02' E 023°31'0 0.0
2015-Mar-24 10:32N 38°02' E 023°31'0 0.0
2015-Mar-24 09:32N 38°02' E 023°31'0 0.0
2015-Mar-24 08:32N 38°02' E 023°31'0 0.0
2015-Mar-24 07:33N 38°02' E 023°31'0 0.0
2015-Mar-24 06:32N 38°02' E 023°31'0 0.0
2015-Mar-24 05:33N 38°02' E 023°31'0 0.0
2015-Mar-24 04:31N 38°02' E 023°31'0 0.0
2015-Mar-24 03:33N 38°02' E 023°31'0 0.0
2015-Mar-24 02:30N 38°02' E 023°31'0 0.0
2015-Mar-24 01:33N 38°02' E 023°31'0 0.0
2015-Mar-24 00:33N 38°02' E 023°31'0 0.0
2015-Mar-23 23:33N 38°02' E 023°31'0 0.0
2015-Mar-23 22:30N 38°02' E 023°31'0 0.0
2015-Mar-23 21:33N 38°02' E 023°31'0 0.0
2015-Mar-23 20:32N 38°02' E 023°31'0 0.0
2015-Mar-23 19:31N 38°02' E 023°31'0 0.0
2015-Mar-23 18:33N 38°02' E 023°31'4 0.9
2015-Mar-23 13:32N 37°58' E 023°33'1 1.5
2015-Mar-23 12:33N 37°57' E 023°35'0 0.1
2015-Mar-23 11:33N 37°57' E 023°34'0 0.1
2015-Mar-23 10:31N 37°57' E 023°35'0 0.1
2015-Mar-23 09:31N 37°57' E 023°34'0 0.0
2015-Mar-23 08:31N 37°57' E 023°34'0 0.1
2015-Mar-23 07:33N 37°57' E 023°35'0 0.0
2015-Mar-23 06:32N 37°57' E 023°35'0 0.0
2015-Mar-23 05:32N 37°57' E 023°35'0 0.0
2015-Mar-23 04:32N 37°57' E 023°34'0 0.1
2015-Mar-23 03:33N 37°57' E 023°34'0 0.0
2015-Mar-23 02:33N 37°57' E 023°34'0 0.0
2015-Mar-23 01:33N 37°57' E 023°34'0 0.0
2015-Mar-23 00:33N 37°57' E 023°34'0 0.1
2015-Mar-22 23:33N 37°57' E 023°34'0 0.0
2015-Mar-22 22:33N 37°57' E 023°34'6 0.7
2015-Mar-22 14:32N 37°52' E 023°30'0 0.1
2015-Mar-22 13:20N 37°52' E 023°30'2 2.1
2015-Mar-22 12:33N 37°51' E 023°32'0 0.0
2015-Mar-22 11:33N 37°51' E 023°32'0 0.1
2015-Mar-22 10:33N 37°51' E 023°32'0 0.0
2015-Mar-22 09:33N 37°51' E 023°32'0 0.0
2015-Mar-22 08:33N 37°51' E 023°32'0 0.2
2015-Mar-22 07:33N 37°51' E 023°32'6 6.2
2015-Mar-22 06:33N 37°57' E 023°34'7 0.6
2015-Mar-21 18:07N 37°57' E 023°24'7 9.8
2015-Mar-21 17:23N 37°55' E 023°16'10 0.4
2015-Mar-20 14:31N 37°52' E 023°27'3 3.2
2015-Mar-20 13:33N 37°52' E 023°31'0 0.0
2015-Mar-20 12:33N 37°52' E 023°31'0 0.0
2015-Mar-20 11:33N 37°52' E 023°31'0 0.1
2015-Mar-20 10:33N 37°52' E 023°31'0 0.0
2015-Mar-20 09:33N 37°52' E 023°31'0 0.0
2015-Mar-20 08:33N 37°52' E 023°31'0 0.0
2015-Mar-20 07:33N 37°52' E 023°31'0 0.0
2015-Mar-20 06:33N 37°52' E 023°31'4 4.2
2015-Mar-20 05:32N 37°55' E 023°34'7 1.1
2015-Mar-19 23:29N 38°02' E 023°31'1 0.7
2015-Mar-19 22:33N 38°02' E 023°31'0 0.0
2015-Mar-19 21:33N 38°02' E 023°31'0 0.0
2015-Mar-19 20:31N 38°02' E 023°31'0 0.0
2015-Mar-19 19:33N 38°02' E 023°31'0 0.0
2015-Mar-19 18:30N 38°02' E 023°31'0 0.0
2015-Mar-19 17:32N 38°02' E 023°31'0 0.0
2015-Mar-19 16:25N 38°02' E 023°31'0 0.0
2015-Mar-19 15:30N 38°02' E 023°31'5 5.6
2015-Mar-19 14:33N 37°57' E 023°34'3 3.3
2015-Mar-19 13:33N 37°55' E 023°36'10 9.9
2015-Mar-19 12:33N 37°46' E 023°42'10 9.6
2015-Mar-19 11:33N 37°37' E 023°45'  
2015-Mar-16 14:33N 37°33' E 023°43'9 8.8
2015-Mar-16 13:33N 37°42' E 023°41'9 8.6
2015-Mar-16 12:33N 37°49' E 023°34'9 8.9
2015-Mar-16 11:33N 37°52' E 023°24'12 9.1
2015-Mar-16 10:15N 37°54' E 023°09'12 0.4
2015-Mar-15 06:19N 37°52' E 023°25'7 9.3
2015-Mar-15 05:33N 37°55' E 023°33'3 2.6
2015-Mar-15 04:33N 37°57' E 023°34'0 0.0
2015-Mar-15 03:33N 37°57' E 023°34'0 0.0
2015-Mar-15 02:33N 37°57' E 023°34'0 0.0
2015-Mar-15 01:33N 37°57' E 023°34'0 0.0
2015-Mar-15 00:33N 37°57' E 023°34'0 0.0
2015-Mar-14 23:33N 37°57' E 023°34'0 0.0
2015-Mar-14 22:33N 37°57' E 023°34'0 0.0
2015-Mar-14 21:33N 37°57' E 023°34'0 0.0
2015-Mar-14 20:30N 37°57' E 023°34'0 0.0
2015-Mar-14 19:33N 37°57' E 023°34'  
Track history (hours):
 
Tides and Currents Weather Stations Pressure Air Temp Water Temp Dewpoint Dewpoint Depression Visibility Wind Speed Wind Dir Waves Ship Positions

Menalon

Last reported at 2015-Mar-24 19:25 UTC. Time now 2015-Mar-28 05:21 UTC.
Position N 37°38' E 023°51'.

Length 83 m; draft 6.5 m.

Type: Ship (hazmat cat C). MMSI: 239741000.

Date/timePositionNaut miles runAvg speedWind from/ knotsBaromVisibWave heightAir tempDewpointWater temp
2015-Mar-24 19:25N 37°38' E 023°51'7 8.3
2015-Mar-24 18:33N 37°41' E 023°42'9 8.6
2015-Mar-24 17:33N 37°48' E 023°37'9 8.9
2015-Mar-24 16:33N 37°57' E 023°35'0 0.3
2015-Mar-24 15:30N 37°57' E 023°35'0 0.0
2015-Mar-24 14:31N 37°57' E 023°35'0 0.0
2015-Mar-24 13:31N 37°57' E 023°35'6 2.9
2015-Mar-24 11:33N 38°02' E 023°31'0 0.0
2015-Mar-24 10:32N 38°02' E 023°31'0 0.0
2015-Mar-24 09:32N 38°02' E 023°31'0 0.0
2015-Mar-24 08:32N 38°02' E 023°31'0 0.0
2015-Mar-24 07:33N 38°02' E 023°31'0 0.0
2015-Mar-24 06:32N 38°02' E 023°31'0 0.0
2015-Mar-24 05:33N 38°02' E 023°31'0 0.0
2015-Mar-24 04:31N 38°02' E 023°31'0 0.0
2015-Mar-24 03:33N 38°02' E 023°31'0 0.0
2015-Mar-24 02:30N 38°02' E 023°31'0 0.0
2015-Mar-24 01:33N 38°02' E 023°31'0 0.0
2015-Mar-24 00:33N 38°02' E 023°31'0 0.0
2015-Mar-23 23:33N 38°02' E 023°31'0 0.0
2015-Mar-23 22:30N 38°02' E 023°31'0 0.0
2015-Mar-23 21:33N 38°02' E 023°31'0 0.0
2015-Mar-23 20:32N 38°02' E 023°31'0 0.0
2015-Mar-23 19:31N 38°02' E 023°31'0 0.0
2015-Mar-23 18:33N 38°02' E 023°31'4 0.9
2015-Mar-23 13:32N 37°58' E 023°33'1 1.5
2015-Mar-23 12:33N 37°57' E 023°35'0 0.1
2015-Mar-23 11:33N 37°57' E 023°34'0 0.1
2015-Mar-23 10:31N 37°57' E 023°35'0 0.1
2015-Mar-23 09:31N 37°57' E 023°34'0 0.0
2015-Mar-23 08:31N 37°57' E 023°34'0 0.1
2015-Mar-23 07:33N 37°57' E 023°35'0 0.0
2015-Mar-23 06:32N 37°57' E 023°35'0 0.0
2015-Mar-23 05:32N 37°57' E 023°35'0 0.0
2015-Mar-23 04:32N 37°57' E 023°34'0 0.1
2015-Mar-23 03:33N 37°57' E 023°34'0 0.0
2015-Mar-23 02:33N 37°57' E 023°34'0 0.0
2015-Mar-23 01:33N 37°57' E 023°34'0 0.0
2015-Mar-23 00:33N 37°57' E 023°34'0 0.1
2015-Mar-22 23:33N 37°57' E 023°34'0 0.0
2015-Mar-22 22:33N 37°57' E 023°34'6 0.7
2015-Mar-22 14:32N 37°52' E 023°30'0 0.1
2015-Mar-22 13:20N 37°52' E 023°30'2 2.1
2015-Mar-22 12:33N 37°51' E 023°32'0 0.0
2015-Mar-22 11:33N 37°51' E 023°32'0 0.1
2015-Mar-22 10:33N 37°51' E 023°32'0 0.0
2015-Mar-22 09:33N 37°51' E 023°32'0 0.0
2015-Mar-22 08:33N 37°51' E 023°32'0 0.2
2015-Mar-22 07:33N 37°51' E 023°32'6 6.2
2015-Mar-22 06:33N 37°57' E 023°34'7 0.6
2015-Mar-21 18:07N 37°57' E 023°24'7 9.8
2015-Mar-21 17:23N 37°55' E 023°16'10 0.4
2015-Mar-20 14:31N 37°52' E 023°27'3 3.2
2015-Mar-20 13:33N 37°52' E 023°31'0 0.0
2015-Mar-20 12:33N 37°52' E 023°31'0 0.0
2015-Mar-20 11:33N 37°52' E 023°31'0 0.1
2015-Mar-20 10:33N 37°52' E 023°31'0 0.0
2015-Mar-20 09:33N 37°52' E 023°31'0 0.0
2015-Mar-20 08:33N 37°52' E 023°31'0 0.0
2015-Mar-20 07:33N 37°52' E 023°31'0 0.0
2015-Mar-20 06:33N 37°52' E 023°31'4 4.2
2015-Mar-20 05:32N 37°55' E 023°34'7 1.1
2015-Mar-19 23:29N 38°02' E 023°31'1 0.7
2015-Mar-19 22:33N 38°02' E 023°31'0 0.0
2015-Mar-19 21:33N 38°02' E 023°31'0 0.0
2015-Mar-19 20:31N 38°02' E 023°31'0 0.0
2015-Mar-19 19:33N 38°02' E 023°31'0 0.0
2015-Mar-19 18:30N 38°02' E 023°31'0 0.0
2015-Mar-19 17:32N 38°02' E 023°31'0 0.0
2015-Mar-19 16:25N 38°02' E 023°31'0 0.0
2015-Mar-19 15:30N 38°02' E 023°31'5 5.6
2015-Mar-19 14:33N 37°57' E 023°34'3 3.3
2015-Mar-19 13:33N 37°55' E 023°36'10 9.9
2015-Mar-19 12:33N 37°46' E 023°42'10 9.6
2015-Mar-19 11:33N 37°37' E 023°45'  
2015-Mar-16 14:33N 37°33' E 023°43'9 8.8
2015-Mar-16 13:33N 37°42' E 023°41'9 8.6
2015-Mar-16 12:33N 37°49' E 023°34'9 8.9
2015-Mar-16 11:33N 37°52' E 023°24'12 9.1
2015-Mar-16 10:15N 37°54' E 023°09'12 0.4
2015-Mar-15 06:19N 37°52' E 023°25'7 9.3
2015-Mar-15 05:33N 37°55' E 023°33'3 2.6
2015-Mar-15 04:33N 37°57' E 023°34'0 0.0
2015-Mar-15 03:33N 37°57' E 023°34'0 0.0
2015-Mar-15 02:33N 37°57' E 023°34'0 0.0
2015-Mar-15 01:33N 37°57' E 023°34'0 0.0
2015-Mar-15 00:33N 37°57' E 023°34'0 0.0
2015-Mar-14 23:33N 37°57' E 023°34'0 0.0
2015-Mar-14 22:33N 37°57' E 023°34'0 0.0
2015-Mar-14 21:33N 37°57' E 023°34'0 0.0
2015-Mar-14 20:30N 37°57' E 023°34'0 0.0
2015-Mar-14 19:33N 37°57' E 023°34'  

Dump ship's entire track history